SWR57C LSZH-LFMN
Flight info
| Callsign | SWR57C |
|---|---|
| Flight time | 0h 56m |
| Altitude | 35000 |
| Route | VEBIT T53 GERSA DCT SOSON DCT ODINA DCT ENOBA Z185 BORDI |
| Aircraft | A20N/M-SDE2E3FGHIRWXY/LB1 |
Departure
| Time | 2026-05-07 15:35 |
|---|---|
| Airport | Zürich Airport (LSZH) |
Arrival
| Time | 2026-05-07 16:32 |
|---|---|
| Airport | Nice-Côte d'Azur Airport (LFMN) |
| Time | Latitude | Longitude | Altitude | Speed | Heading |
|---|---|---|---|---|---|
| 2026-05-07 15:15 | 47.45409 | 8.56061 | 1397 ft | 0 kts | 186° |
| 2026-05-07 15:25 | 47.45416 | 8.56062 | 1396 ft | 2 kts | 184° |
| 2026-05-07 15:25 | 47.45432 | 8.56064 | 1398 ft | 2 kts | 183° |
| 2026-05-07 15:26 | 47.45448 | 8.56065 | 1403 ft | 2 kts | 178° |
| 2026-05-07 15:26 | 47.45465 | 8.56063 | 1402 ft | 2 kts | 169° |
| 2026-05-07 15:26 | 47.45480 | 8.56055 | 1398 ft | 2 kts | 133° |
| 2026-05-07 15:26 | 47.45487 | 8.56036 | 1407 ft | 1 kts | 97° |
| 2026-05-07 15:27 | 47.45488 | 8.56031 | 1399 ft | 0 kts | 96° |
| 2026-05-07 15:29 | 47.45487 | 8.56033 | 1398 ft | 1 kts | 96° |
| 2026-05-07 15:29 | 47.45485 | 8.56070 | 1399 ft | 6 kts | 96° |
| 2026-05-07 15:29 | 47.45479 | 8.56142 | 1396 ft | 0 kts | 96° |
| 2026-05-07 15:30 | 47.45479 | 8.56145 | 1396 ft | 2 kts | 96° |
| 2026-05-07 15:30 | 47.45478 | 8.56196 | 1400 ft | 7 kts | 75° |
| 2026-05-07 15:30 | 47.45510 | 8.56275 | 1400 ft | 10 kts | 53° |
| 2026-05-07 15:30 | 47.45559 | 8.56367 | 1403 ft | 13 kts | 52° |
| 2026-05-07 15:31 | 47.45591 | 8.56482 | 1399 ft | 13 kts | 89° |
| 2026-05-07 15:31 | 47.45585 | 8.56620 | 1397 ft | 14 kts | 96° |
| 2026-05-07 15:31 | 47.45574 | 8.56773 | 1402 ft | 12 kts | 96° |
| 2026-05-07 15:31 | 47.45565 | 8.56898 | 1397 ft | 11 kts | 95° |
| 2026-05-07 15:32 | 47.45565 | 8.56970 | 1397 ft | 7 kts | 78° |
| 2026-05-07 15:32 | 47.45591 | 8.57012 | 1401 ft | 5 kts | 20° |
| 2026-05-07 15:32 | 47.45594 | 8.57013 | 1401 ft | 0 kts | 14° |
| 2026-05-07 15:33 | 47.45603 | 8.57016 | 1400 ft | 3 kts | 14° |
| 2026-05-07 15:33 | 47.45630 | 8.57021 | 1398 ft | 6 kts | 358° |
| 2026-05-07 15:33 | 47.45662 | 8.56967 | 1403 ft | 8 kts | 285° |
| 2026-05-07 15:34 | 47.45665 | 8.56932 | 1398 ft | 0 kts | 277° |
| 2026-05-07 15:34 | 47.45665 | 8.56930 | 1398 ft | 3 kts | 277° |
| 2026-05-07 15:35 | 47.45686 | 8.56657 | 1395 ft | 61 kts | 275° |
| 2026-05-07 15:35 | 47.45759 | 8.55696 | 1397 ft | 126 kts | 276° |
| 2026-05-07 15:35 | 47.45856 | 8.54189 | 1623 ft | 153 kts | 275° |
| 2026-05-07 15:35 | 47.45918 | 8.52646 | 2429 ft | 152 kts | 274° |
| 2026-05-07 15:36 | 47.46011 | 8.51081 | 3191 ft | 154 kts | 276° |
| 2026-05-07 15:36 | 47.46144 | 8.49449 | 3683 ft | 168 kts | 279° |
| 2026-05-07 15:36 | 47.46255 | 8.47645 | 4069 ft | 187 kts | 263° |
| 2026-05-07 15:36 | 47.45679 | 8.45839 | 4494 ft | 210 kts | 229° |
| 2026-05-07 15:37 | 47.44517 | 8.44343 | 4950 ft | 234 kts | 220° |
| 2026-05-07 15:37 | 47.43237 | 8.42715 | 5513 ft | 253 kts | 225° |
| 2026-05-07 15:37 | 47.42003 | 8.40763 | 6226 ft | 265 kts | 231° |
| 2026-05-07 15:37 | 47.40861 | 8.38613 | 7188 ft | 267 kts | 234° |
| 2026-05-07 15:38 | 47.39783 | 8.36387 | 8177 ft | 269 kts | 236° |
| 2026-05-07 15:38 | 47.38717 | 8.34103 | 9192 ft | 271 kts | 237° |
| 2026-05-07 15:38 | 47.37761 | 8.31695 | 10232 ft | 274 kts | 243° |
| 2026-05-07 15:38 | 47.36883 | 8.29116 | 10736 ft | 294 kts | 244° |
| 2026-05-07 15:39 | 47.35950 | 8.26307 | 11071 ft | 317 kts | 244° |
| 2026-05-07 15:39 | 47.34943 | 8.23347 | 11674 ft | 328 kts | 243° |
| 2026-05-07 15:39 | 47.33900 | 8.20350 | 12545 ft | 330 kts | 243° |
| 2026-05-07 15:39 | 47.32834 | 8.17330 | 13390 ft | 335 kts | 242° |
| 2026-05-07 15:40 | 47.31750 | 8.14284 | 14188 ft | 339 kts | 242° |
| 2026-05-07 15:40 | 47.30440 | 8.11385 | 14862 ft | 344 kts | 226° |
| 2026-05-07 15:40 | 47.28510 | 8.09303 | 15563 ft | 350 kts | 206° |
| 2026-05-07 15:40 | 47.26155 | 8.08313 | 16224 ft | 359 kts | 187° |
| 2026-05-07 15:41 | 47.23651 | 8.08564 | 16902 ft | 367 kts | 168° |
| 2026-05-07 15:41 | 47.21287 | 8.10042 | 17570 ft | 376 kts | 149° |
| 2026-05-07 15:41 | 47.19152 | 8.12304 | 18251 ft | 381 kts | 144° |
| 2026-05-07 15:41 | 47.17017 | 8.14631 | 18854 ft | 385 kts | 146° |
| 2026-05-07 15:42 | 47.14784 | 8.16813 | 19480 ft | 387 kts | 149° |
| 2026-05-07 15:42 | 47.12472 | 8.18842 | 20077 ft | 390 kts | 152° |
| 2026-05-07 15:42 | 47.10098 | 8.20791 | 20666 ft | 393 kts | 153° |
| 2026-05-07 15:42 | 47.07684 | 8.22708 | 21256 ft | 397 kts | 153° |
| 2026-05-07 15:43 | 47.05244 | 8.24626 | 21851 ft | 400 kts | 154° |
| 2026-05-07 15:43 | 47.02784 | 8.26555 | 22456 ft | 404 kts | 154° |
| 2026-05-07 15:43 | 47.00301 | 8.28502 | 23030 ft | 408 kts | 153° |
| 2026-05-07 15:43 | 46.97790 | 8.30473 | 23585 ft | 411 kts | 153° |
| 2026-05-07 15:44 | 46.95265 | 8.32456 | 24044 ft | 415 kts | 154° |
| 2026-05-07 15:44 | 46.92715 | 8.34457 | 24518 ft | 418 kts | 154° |
| 2026-05-07 15:44 | 46.90154 | 8.36464 | 24945 ft | 422 kts | 154° |
| 2026-05-07 15:44 | 46.87566 | 8.38491 | 25382 ft | 425 kts | 154° |
| 2026-05-07 15:45 | 46.84944 | 8.40541 | 25823 ft | 429 kts | 154° |
| 2026-05-07 15:45 | 46.82312 | 8.42598 | 26251 ft | 432 kts | 154° |
| 2026-05-07 15:45 | 46.79656 | 8.44670 | 26666 ft | 436 kts | 155° |
| 2026-05-07 15:45 | 46.76971 | 8.46762 | 27048 ft | 439 kts | 155° |
| 2026-05-07 15:46 | 46.71555 | 8.50977 | 27817 ft | 446 kts | 155° |
| 2026-05-07 15:46 | 46.68813 | 8.53107 | 28157 ft | 449 kts | 155° |
| 2026-05-07 15:46 | 46.66071 | 8.55235 | 28575 ft | 452 kts | 155° |
| 2026-05-07 15:47 | 46.63244 | 8.57334 | 28818 ft | 454 kts | 160° |
| 2026-05-07 15:47 | 46.60301 | 8.58910 | 29171 ft | 452 kts | 168° |
| 2026-05-07 15:47 | 46.57241 | 8.59905 | 29522 ft | 450 kts | 176° |
| 2026-05-07 15:47 | 46.54139 | 8.60383 | 29863 ft | 450 kts | 180° |
| 2026-05-07 15:48 | 46.51024 | 8.60804 | 30180 ft | 452 kts | 180° |
| 2026-05-07 15:48 | 46.47889 | 8.61239 | 30480 ft | 454 kts | 180° |
| 2026-05-07 15:48 | 46.44750 | 8.61680 | 30805 ft | 455 kts | 179° |
| 2026-05-07 15:48 | 46.41597 | 8.62125 | 31098 ft | 457 kts | 180° |
| 2026-05-07 15:49 | 46.38438 | 8.62572 | 31428 ft | 457 kts | 180° |
| 2026-05-07 15:49 | 46.35287 | 8.63020 | 31844 ft | 454 kts | 180° |
| 2026-05-07 15:49 | 46.32143 | 8.63464 | 32194 ft | 455 kts | 180° |
| 2026-05-07 15:49 | 46.29003 | 8.63906 | 32578 ft | 454 kts | 180° |
| 2026-05-07 15:50 | 46.25861 | 8.64347 | 32926 ft | 453 kts | 180° |
| 2026-05-07 15:50 | 46.22734 | 8.64785 | 33330 ft | 452 kts | 180° |
| 2026-05-07 15:50 | 46.19614 | 8.65224 | 33756 ft | 451 kts | 180° |
| 2026-05-07 15:50 | 46.16505 | 8.65659 | 34152 ft | 449 kts | 180° |
| 2026-05-07 15:51 | 46.13404 | 8.66085 | 34439 ft | 448 kts | 181° |
| 2026-05-07 15:51 | 46.10314 | 8.66224 | 34675 ft | 443 kts | 187° |
| 2026-05-07 15:51 | 46.07270 | 8.65904 | 34911 ft | 438 kts | 193° |
| 2026-05-07 15:52 | 46.01268 | 8.64647 | 34961 ft | 435 kts | 194° |
| 2026-05-07 15:52 | 45.95278 | 8.63408 | 34961 ft | 433 kts | 194° |
| 2026-05-07 15:53 | 45.89323 | 8.62188 | 34959 ft | 433 kts | 194° |
| 2026-05-07 15:53 | 45.83375 | 8.60976 | 34961 ft | 432 kts | 194° |
| 2026-05-07 15:54 | 45.77430 | 8.59769 | 34961 ft | 432 kts | 194° |
| 2026-05-07 15:54 | 45.71495 | 8.58566 | 34963 ft | 431 kts | 194° |
| 2026-05-07 15:55 | 45.65567 | 8.57367 | 34965 ft | 431 kts | 194° |
| 2026-05-07 15:55 | 45.59630 | 8.56169 | 34973 ft | 432 kts | 194° |
| 2026-05-07 15:56 | 45.53696 | 8.54974 | 34976 ft | 431 kts | 194° |
| 2026-05-07 15:56 | 45.47769 | 8.53784 | 34977 ft | 431 kts | 194° |
| 2026-05-07 15:57 | 45.41843 | 8.52596 | 35004 ft | 431 kts | 194° |
| 2026-05-07 15:57 | 45.35948 | 8.51419 | 34991 ft | 427 kts | 194° |
| 2026-05-07 15:58 | 45.30082 | 8.50247 | 34991 ft | 427 kts | 194° |
| 2026-05-07 15:58 | 45.24208 | 8.49077 | 34982 ft | 427 kts | 194° |
| 2026-05-07 15:59 | 45.18346 | 8.47912 | 34974 ft | 426 kts | 194° |
| 2026-05-07 15:59 | 45.12495 | 8.46752 | 34966 ft | 425 kts | 194° |
| 2026-05-07 16:00 | 45.06644 | 8.45594 | 34953 ft | 425 kts | 194° |
| 2026-05-07 16:00 | 45.00802 | 8.44440 | 34953 ft | 425 kts | 194° |
| 2026-05-07 16:01 | 44.94964 | 8.43289 | 34952 ft | 424 kts | 194° |
| 2026-05-07 16:01 | 44.89148 | 8.42146 | 34958 ft | 424 kts | 194° |
| 2026-05-07 16:02 | 44.83298 | 8.40998 | 34958 ft | 424 kts | 194° |
| 2026-05-07 16:02 | 44.77472 | 8.39857 | 34969 ft | 423 kts | 194° |
| 2026-05-07 16:03 | 44.71650 | 8.38719 | 34678 ft | 423 kts | 194° |
| 2026-05-07 16:03 | 44.68743 | 8.38152 | 34290 ft | 422 kts | 194° |
| 2026-05-07 16:03 | 44.65850 | 8.37589 | 33920 ft | 420 kts | 194° |
| 2026-05-07 16:03 | 44.62958 | 8.37026 | 33477 ft | 421 kts | 194° |
| 2026-05-07 16:04 | 44.60058 | 8.36460 | 33046 ft | 423 kts | 194° |
| 2026-05-07 16:04 | 44.57138 | 8.35890 | 32611 ft | 424 kts | 194° |
| 2026-05-07 16:04 | 44.54224 | 8.35324 | 32205 ft | 425 kts | 194° |
| 2026-05-07 16:04 | 44.51300 | 8.34755 | 31802 ft | 426 kts | 194° |
| 2026-05-07 16:05 | 44.48376 | 8.34188 | 31390 ft | 424 kts | 194° |
| 2026-05-07 16:05 | 44.45480 | 8.33632 | 30987 ft | 417 kts | 194° |
| 2026-05-07 16:05 | 44.42632 | 8.33086 | 30594 ft | 410 kts | 194° |
| 2026-05-07 16:05 | 44.39842 | 8.32552 | 30209 ft | 402 kts | 194° |
| 2026-05-07 16:06 | 44.37096 | 8.32023 | 29732 ft | 397 kts | 194° |
| 2026-05-07 16:06 | 44.34382 | 8.31494 | 29169 ft | 392 kts | 195° |
| 2026-05-07 16:06 | 44.31816 | 8.30487 | 28613 ft | 378 kts | 209° |
| 2026-05-07 16:06 | 44.29585 | 8.28670 | 28077 ft | 368 kts | 222° |
| 2026-05-07 16:07 | 44.27783 | 8.26201 | 27549 ft | 363 kts | 234° |
| 2026-05-07 16:07 | 44.26345 | 8.23328 | 27037 ft | 362 kts | 237° |
| 2026-05-07 16:07 | 44.24929 | 8.20444 | 26517 ft | 360 kts | 237° |
| 2026-05-07 16:07 | 44.23517 | 8.17591 | 26028 ft | 358 kts | 237° |
| 2026-05-07 16:08 | 44.22099 | 8.14736 | 25526 ft | 359 kts | 237° |
| 2026-05-07 16:08 | 44.20683 | 8.11890 | 25041 ft | 358 kts | 237° |
| 2026-05-07 16:08 | 44.19272 | 8.09055 | 24573 ft | 355 kts | 237° |
| 2026-05-07 16:08 | 44.17894 | 8.06206 | 24106 ft | 356 kts | 237° |
| 2026-05-07 16:09 | 44.16478 | 8.03388 | 23645 ft | 355 kts | 236° |
| 2026-05-07 16:09 | 44.15060 | 8.00586 | 22954 ft | 356 kts | 236° |
| 2026-05-07 16:09 | 44.13636 | 7.97752 | 22139 ft | 360 kts | 236° |
| 2026-05-07 16:09 | 44.12201 | 7.94879 | 21366 ft | 363 kts | 236° |
| 2026-05-07 16:10 | 44.10755 | 7.91986 | 20600 ft | 367 kts | 236° |
| 2026-05-07 16:10 | 44.09295 | 7.89076 | 19856 ft | 369 kts | 236° |
| 2026-05-07 16:10 | 44.07832 | 7.86163 | 19119 ft | 365 kts | 236° |
| 2026-05-07 16:10 | 44.06392 | 7.83300 | 18418 ft | 359 kts | 236° |
| 2026-05-07 16:11 | 44.04971 | 7.80476 | 17622 ft | 355 kts | 236° |
| 2026-05-07 16:11 | 44.03569 | 7.77689 | 16835 ft | 351 kts | 236° |
| 2026-05-07 16:11 | 44.02181 | 7.74933 | 16070 ft | 347 kts | 235° |
| 2026-05-07 16:11 | 44.00809 | 7.72210 | 15400 ft | 342 kts | 235° |
| 2026-05-07 16:12 | 43.99463 | 7.69539 | 14856 ft | 335 kts | 235° |
| 2026-05-07 16:12 | 43.98134 | 7.66901 | 14373 ft | 333 kts | 235° |
| 2026-05-07 16:12 | 43.96809 | 7.64273 | 13904 ft | 333 kts | 235° |
| 2026-05-07 16:12 | 43.95485 | 7.61655 | 13385 ft | 331 kts | 234° |
| 2026-05-07 16:13 | 43.93866 | 7.59422 | 12847 ft | 330 kts | 213° |
| 2026-05-07 16:13 | 43.91760 | 7.58210 | 12333 ft | 330 kts | 192° |
| 2026-05-07 16:13 | 43.89484 | 7.58212 | 11883 ft | 329 kts | 169° |
| 2026-05-07 16:13 | 43.87405 | 7.59430 | 11503 ft | 326 kts | 146° |
| 2026-05-07 16:14 | 43.85806 | 7.61610 | 11146 ft | 322 kts | 130° |
| 2026-05-07 16:14 | 43.84426 | 7.64020 | 10769 ft | 318 kts | 129° |
| 2026-05-07 16:14 | 43.83053 | 7.66395 | 10404 ft | 314 kts | 130° |
| 2026-05-07 16:14 | 43.81661 | 7.68696 | 10103 ft | 309 kts | 131° |
| 2026-05-07 16:15 | 43.80280 | 7.70892 | 10002 ft | 296 kts | 133° |
| 2026-05-07 16:15 | 43.78932 | 7.72992 | 9989 ft | 294 kts | 133° |
| 2026-05-07 16:15 | 43.77557 | 7.75107 | 9991 ft | 296 kts | 133° |
| 2026-05-07 16:15 | 43.76206 | 7.77180 | 9927 ft | 287 kts | 133° |
| 2026-05-07 16:16 | 43.74881 | 7.79212 | 9634 ft | 283 kts | 133° |
| 2026-05-07 16:16 | 43.73565 | 7.81229 | 9347 ft | 283 kts | 133° |
| 2026-05-07 16:16 | 43.72255 | 7.83237 | 9058 ft | 281 kts | 134° |
| 2026-05-07 16:16 | 43.70952 | 7.85232 | 8779 ft | 280 kts | 134° |
| 2026-05-07 16:17 | 43.69655 | 7.87217 | 8491 ft | 278 kts | 134° |
| 2026-05-07 16:17 | 43.68365 | 7.89191 | 8212 ft | 277 kts | 134° |
| 2026-05-07 16:17 | 43.67078 | 7.91156 | 7936 ft | 275 kts | 134° |
| 2026-05-07 16:17 | 43.65804 | 7.93103 | 7661 ft | 274 kts | 134° |
| 2026-05-07 16:18 | 43.64522 | 7.95044 | 7388 ft | 273 kts | 134° |
| 2026-05-07 16:18 | 43.63267 | 7.96978 | 7116 ft | 269 kts | 134° |
| 2026-05-07 16:18 | 43.62024 | 7.98897 | 6843 ft | 269 kts | 134° |
| 2026-05-07 16:18 | 43.60774 | 8.00801 | 6586 ft | 267 kts | 138° |
| 2026-05-07 16:19 | 43.59258 | 8.02174 | 6325 ft | 260 kts | 163° |
| 2026-05-07 16:19 | 43.57499 | 8.02440 | 6029 ft | 256 kts | 190° |
| 2026-05-07 16:19 | 43.55869 | 8.01560 | 5747 ft | 253 kts | 217° |
| 2026-05-07 16:19 | 43.54590 | 7.99924 | 5483 ft | 251 kts | 225° |
| 2026-05-07 16:20 | 43.53355 | 7.98239 | 5203 ft | 250 kts | 225° |
| 2026-05-07 16:20 | 43.52128 | 7.96573 | 5017 ft | 246 kts | 225° |
| 2026-05-07 16:20 | 43.51086 | 7.94745 | 4990 ft | 244 kts | 245° |
| 2026-05-07 16:20 | 43.50761 | 7.92433 | 4854 ft | 253 kts | 273° |
| 2026-05-07 16:21 | 43.51080 | 7.90044 | 4681 ft | 254 kts | 281° |
| 2026-05-07 16:21 | 43.51498 | 7.87711 | 4498 ft | 249 kts | 282° |
| 2026-05-07 16:21 | 43.51922 | 7.85424 | 4319 ft | 244 kts | 282° |
| 2026-05-07 16:21 | 43.52325 | 7.83193 | 4145 ft | 237 kts | 282° |
| 2026-05-07 16:22 | 43.52705 | 7.81032 | 3990 ft | 229 kts | 281° |
| 2026-05-07 16:22 | 43.53065 | 7.78932 | 3836 ft | 222 kts | 281° |
| 2026-05-07 16:22 | 43.53408 | 7.76900 | 3679 ft | 215 kts | 281° |
| 2026-05-07 16:22 | 43.53735 | 7.74944 | 3525 ft | 205 kts | 281° |
| 2026-05-07 16:23 | 43.54051 | 7.73071 | 3371 ft | 197 kts | 281° |
| 2026-05-07 16:23 | 43.54359 | 7.71232 | 3224 ft | 199 kts | 281° |
| 2026-05-07 16:23 | 43.54670 | 7.69367 | 3074 ft | 201 kts | 281° |
| 2026-05-07 16:23 | 43.54982 | 7.67503 | 2999 ft | 199 kts | 281° |
| 2026-05-07 16:24 | 43.55293 | 7.65658 | 2989 ft | 198 kts | 281° |
| 2026-05-07 16:24 | 43.55604 | 7.63800 | 2991 ft | 200 kts | 282° |
| 2026-05-07 16:24 | 43.55918 | 7.61929 | 2991 ft | 201 kts | 281° |
| 2026-05-07 16:24 | 43.56233 | 7.60052 | 2992 ft | 202 kts | 281° |
| 2026-05-07 16:25 | 43.56549 | 7.58177 | 2994 ft | 201 kts | 281° |
| 2026-05-07 16:25 | 43.56862 | 7.56301 | 2991 ft | 202 kts | 281° |
| 2026-05-07 16:25 | 43.57178 | 7.54412 | 2992 ft | 203 kts | 281° |
| 2026-05-07 16:25 | 43.57491 | 7.52532 | 2994 ft | 201 kts | 281° |
| 2026-05-07 16:26 | 43.57802 | 7.50657 | 2995 ft | 201 kts | 281° |
| 2026-05-07 16:26 | 43.58237 | 7.48821 | 2998 ft | 204 kts | 295° |
| 2026-05-07 16:26 | 43.59014 | 7.47173 | 2869 ft | 205 kts | 303° |
| 2026-05-07 16:26 | 43.59842 | 7.45599 | 2678 ft | 201 kts | 303° |
| 2026-05-07 16:27 | 43.60643 | 7.44055 | 2519 ft | 195 kts | 302° |
| 2026-05-07 16:27 | 43.61414 | 7.42553 | 2391 ft | 189 kts | 302° |
| 2026-05-07 16:27 | 43.62151 | 7.41100 | 2301 ft | 179 kts | 302° |
| 2026-05-07 16:27 | 43.62852 | 7.39724 | 2210 ft | 179 kts | 302° |
| 2026-05-07 16:28 | 43.63569 | 7.38302 | 2080 ft | 182 kts | 302° |
| 2026-05-07 16:28 | 43.64289 | 7.36880 | 1992 ft | 179 kts | 302° |
| 2026-05-07 16:28 | 43.64998 | 7.35493 | 2008 ft | 173 kts | 302° |
| 2026-05-07 16:28 | 43.65665 | 7.34191 | 2023 ft | 158 kts | 302° |
| 2026-05-07 16:29 | 43.66262 | 7.33024 | 2001 ft | 138 kts | 301° |
| 2026-05-07 16:29 | 43.66791 | 7.31984 | 1973 ft | 132 kts | 301° |
| 2026-05-07 16:29 | 43.67331 | 7.30912 | 1808 ft | 137 kts | 301° |
| 2026-05-07 16:29 | 43.67867 | 7.29857 | 1540 ft | 135 kts | 302° |
| 2026-05-07 16:30 | 43.68367 | 7.28742 | 1311 ft | 138 kts | 295° |
| 2026-05-07 16:30 | 43.68702 | 7.27484 | 1048 ft | 142 kts | 282° |
| 2026-05-07 16:30 | 43.68824 | 7.26139 | 745 ft | 140 kts | 266° |
| 2026-05-07 16:30 | 43.68545 | 7.24922 | 544 ft | 134 kts | 233° |
| 2026-05-07 16:31 | 43.67879 | 7.24034 | 358 ft | 134 kts | 219° |
| 2026-05-07 16:31 | 43.67203 | 7.23169 | 196 ft | 133 kts | 222° |
| 2026-05-07 16:31 | 43.66542 | 7.22278 | 40 ft | 133 kts | 224° |
| 2026-05-07 16:31 | 43.65953 | 7.21476 | 21 ft | 94 kts | 224° |
| 2026-05-07 16:32 | 43.65631 | 7.21035 | 23 ft | 36 kts | 226° |
| 2026-05-07 16:32 | 43.65499 | 7.20821 | 22 ft | 26 kts | 256° |
| 2026-05-07 16:32 | 43.65516 | 7.20718 | 22 ft | 6 kts | 317° |
| 2026-05-07 16:32 | 43.65561 | 7.20681 | 22 ft | 9 kts | 336° |
| 2026-05-07 16:33 | 43.65628 | 7.20696 | 22 ft | 11 kts | 23° |
| 2026-05-07 16:33 | 43.65684 | 7.20778 | 22 ft | 13 kts | 44° |
| 2026-05-07 16:33 | 43.65761 | 7.20868 | 22 ft | 14 kts | 17° |
| 2026-05-07 16:33 | 43.65859 | 7.20852 | 21 ft | 16 kts | 352° |
| 2026-05-07 16:34 | 43.65941 | 7.20811 | 21 ft | 10 kts | 302° |
| 2026-05-07 16:34 | 43.65955 | 7.20743 | 21 ft | 3 kts | 281° |
| 2026-05-07 16:34 | 43.65956 | 7.20739 | 21 ft | 0 kts | 281° |